Kezdőlap
METAR-TAF:

METAR-TAF

Repülőterek :

Auburn/Lewiston Municipal Airport

Auburn-Lewiston, Maine, Amerikai Egyesült Államok

földrajzi szélesség: 44-03N, földrajzi hosszúság: 070-17W, magasság: 88 m

Jelenlegi meteorológiai megfigyelések

A jelentés 50 perccel ezelõtt készült, 20:56 UTC
Dél-délkeleti szél 7 kt
Hőmérséklet 28°C
Páratartalom 70%
Légköri nyomás 1015 hPa
Látótávolság: 16.1 km
Derült ég

METAR: KLEW 092056Z AUTO 16007KT 10SM CLR 28/22 A2998 RMK AO2 SLP158 T02780222 56003

Idő: 17:46 (21:46 UTC)


TAF: hiányzik

Meteorológiai megfigyelések és előrejelzések több, mint 4000 repülőtéren (METAR és TAF jelentéseket).

A térképen piros és sárga pontok jelzik az elérhető meteorológiai állomásokat.

Mozgassa az egeret a pont fölött, hogy megjelenjen az állomás neve.

Azután kattintson az időjárási megfigyelések és előrejelzések megtekintéséhez.

A térkép megváltoztatása: kattintson a fekete keresztel jelölt zöld gombra ráközelítéshez, a vonallal jelölt zöld gombra távolításhoz, vagy a zöld nyilakra a szomszédos térképek eléréséhez.


METAR-TAF: